This is the latest recevied weather packets stored in our database for station/object KG4YZY-1. If no packets are shown the sender has not sent any weather packets the latest 10 day(s).
| Time | Temp. | Humidity | Pressure | Rain* | Wind** | Luminosity | Snow |
|---|---|---|---|---|---|---|---|
| 1788027604 | 33.33° C | 64% | 1018.7 hPa | 0 mm | - | - | - |
| 1788027304 | 33.33° C | 66% | 1018.8 hPa | 0 mm | - | - | - |
| 1788027004 | 33.33° C | 66% | 1018.9 hPa | 0 mm | - | - | - |
| 1788026703 | 33.33° C | 65% | 1018.9 hPa | 0 mm | - | - | - |
| 1788026404 | 33.33° C | 65% | 1019 hPa | 0 mm | - | - | - |
| 1788026103 | 33.33° C | 64% | 1019.1 hPa | 0 mm | - | - | - |
| 1788025804 | 32.78° C | 64% | 1019 hPa | 0 mm | - | - | - |
| 1788025504 | 32.78° C | 66% | 1019 hPa | 0 mm | - | - | - |
| 1788025203 | 32.22° C | 68% | 1019.1 hPa | 0 mm | - | - | - |
| 1788024904 | 32.22° C | 68% | 1019.2 hPa | 0 mm | - | - | - |
| 1788024603 | 32.22° C | 69% | 1019.2 hPa | 0 mm | - | - | - |
| 1788023403 | 33.33° C | 65% | 1019.6 hPa | 0 mm | - | - | - |
| 1788023103 | 33.33° C | 64% | 1019.7 hPa | 0 mm | - | - | - |
| 1788022804 | 33.89° C | 62% | 1019.8 hPa | 0 mm | - | - | - |
| 1788022504 | 34.44° C | 60% | 1019.8 hPa | 0 mm | - | - | - |
| 1788022203 | 35° C | 58% | 1019.8 hPa | 0 mm | - | - | - |
| 1788021904 | 35.56° C | 56% | 1019.8 hPa | 0 mm | - | - | - |
| 1788021603 | 35.56° C | 55% | 1019.9 hPa | 0 mm | - | - | - |
| 1788021303 | 35.56° C | 55% | 1019.9 hPa | 0 mm | - | - | - |
| 1788021004 | 35.56° C | 58% | 1020 hPa | 0 mm | - | - | - |
| 1788020703 | 35° C | 59% | 1020 hPa | 0 mm | - | - | - |
| 1788020404 | 35° C | 59% | 1020 hPa | 0 mm | - | - | - |
| 1788020103 | 34.44° C | 59% | 1019.9 hPa | 0 mm | - | - | - |
| 1788019803 | 34.44° C | 61% | 1019.9 hPa | 0 mm | - | - | - |
| 1788019504 | 33.89° C | 62% | 1019.9 hPa | 0 mm | - | - | - |
* Rain latest hour (hover to see other rain measurements)
** Current wind speed in m/s (hover to see current wind gust speed)